CheckWX is a tool to help pilots better visualize weather data.  It is not intended as a substitute for an official pre-flight weather briefing.

12:03:20 UTC

KFHU METAR
Sierra Vista Municipal-Libby AAF Airport
Fort Huachuca Sierra Vista, Arizona, USA
Current

1 hour ago

KFHU 251058Z AUTO 21003KT 10SM CLR 08/M03 A3022 RMK AO2 SLP188 T00811035
Observed
Mar-25 @ 10:58 UTC
Wind
  • 210° at 3 KTS
Visibility
10 SM
Flight Rules
VFR
Cloud Levels
  • Clear skies
Temperature
C / 46°F
Dewpoint
-4°C / 25°F
Humidity
43%
Altimeter
30.22" Hg
Pressure
1018.8 hPa
Previous

2 hours ago

KFHU 250958Z AUTO 00000KT 10SM CLR 09/M04 A3022 RMK AO2 SLP184 T00931036
Observed
Mar-25 @ 09:58 UTC
Visibility
10 SM
Flight Rules
VFR
Cloud Levels
  • Clear skies
Temperature
C / 48°F
Dewpoint
-4°C / 25°F
Humidity
40%
Altimeter
30.22" Hg
Pressure
1018.4 hPa
Previous

3 hours ago

KFHU 250858Z AUTO 19004KT 10SM CLR 09/M03 A3024 RMK AO2 SLP195 T00921034 57005
Observed
Mar-25 @ 08:58 UTC
Wind
  • 190° at 4 KTS
Visibility
10 SM
Flight Rules
VFR
Cloud Levels
  • Clear skies
Temperature
C / 48°F
Dewpoint
-3°C / 27°F
Humidity
43%
Altimeter
30.24" Hg
Pressure
1019.5 hPa